createdAt,value
2019-02-14T00:00:48.279Z,101262.00
2019-02-14T00:02:53.441Z,101262.00
2019-02-14T00:04:58.304Z,101262.00
2019-02-14T00:07:03.171Z,101270.00
2019-02-14T00:09:08.360Z,101273.00
2019-02-14T00:11:13.617Z,101277.00
2019-02-14T00:13:19.057Z,101278.00
2019-02-14T00:15:23.898Z,101273.00
2019-02-14T00:17:29.642Z,101273.00
2019-02-14T00:19:35.180Z,101274.00
2019-02-14T00:21:40.432Z,101270.00
2019-02-14T00:23:45.684Z,101268.00
2019-02-14T00:25:50.844Z,101257.00
2019-02-14T00:27:56.492Z,101264.00
2019-02-14T00:30:02.060Z,101266.00
2019-02-14T00:32:07.437Z,101272.00
2019-02-14T00:34:12.882Z,101272.00
2019-02-14T00:36:17.830Z,101273.00
2019-02-14T00:38:22.796Z,101266.00
2019-02-14T00:40:28.144Z,101271.00
2019-02-14T00:42:33.282Z,101265.00
2019-02-14T00:44:38.444Z,101272.00
2019-02-14T00:46:43.599Z,101270.00
2019-02-14T00:48:48.844Z,101283.00
2019-02-14T00:50:54.010Z,101284.00
2019-02-14T00:52:59.103Z,101270.00
2019-02-14T00:55:04.637Z,101287.00
2019-02-14T00:57:09.947Z,101277.00
2019-02-14T00:59:15.126Z,101282.00
2019-02-14T01:01:20.582Z,101285.00
2019-02-14T01:03:25.461Z,101281.00
2019-02-14T01:05:33.636Z,101272.00
2019-02-14T01:07:36.863Z,101271.00
2019-02-14T01:09:42.220Z,101274.00
2019-02-14T01:11:47.715Z,101262.00
2019-02-14T01:13:53.199Z,101275.00
2019-02-14T01:15:58.511Z,101271.00
2019-02-14T01:18:04.059Z,101267.00
2019-02-14T01:20:09.168Z,101265.00
2019-02-14T01:22:14.396Z,101274.00
2019-02-14T01:24:19.615Z,101270.00
2019-02-14T01:26:24.484Z,101276.00
2019-02-14T01:28:29.578Z,101274.00
2019-02-14T01:30:34.884Z,101266.00
2019-02-14T01:32:40.055Z,101277.00
2019-02-14T01:34:44.911Z,101266.00
2019-02-14T01:36:50.146Z,101271.00
2019-02-14T01:38:55.396Z,101267.00
2019-02-14T01:41:00.878Z,101257.00
2019-02-14T01:43:06.717Z,101276.00
2019-02-14T01:45:12.256Z,101275.00
2019-02-14T01:47:17.993Z,101272.00
2019-02-14T01:49:22.876Z,101270.00
2019-02-14T01:51:28.154Z,101264.00
2019-02-14T01:53:33.334Z,101277.00
2019-02-14T01:55:38.558Z,101268.00
2019-02-14T01:57:43.733Z,101272.00
2019-02-14T01:59:49.218Z,101275.00
2019-02-14T02:01:58.175Z,101270.00
2019-02-14T02:04:16.936Z,101272.00
2019-02-14T02:06:24.624Z,101265.00
2019-02-14T02:08:33.223Z,101266.00
2019-02-14T02:10:38.206Z,101258.00
2019-02-14T02:12:43.642Z,101248.00
2019-02-14T02:14:49.094Z,101248.00
2019-02-14T02:16:54.903Z,101260.00
2019-02-14T02:19:00.423Z,101258.00
2019-02-14T02:21:05.781Z,101259.00
2019-02-14T02:23:10.945Z,101265.00
2019-02-14T02:25:16.438Z,101272.00
2019-02-14T02:27:21.460Z,101256.00
2019-02-14T02:29:27.012Z,101257.00
2019-02-14T02:31:31.846Z,101268.00
2019-02-14T02:33:37.446Z,101253.00
2019-02-14T02:35:42.987Z,101261.00
2019-02-14T02:37:48.137Z,101252.00
2019-02-14T02:39:53.285Z,101247.00
2019-02-14T02:41:58.199Z,101245.00
2019-02-14T02:44:03.108Z,101250.00
2019-02-14T02:46:08.555Z,101236.00
2019-02-14T02:48:13.936Z,101248.00
2019-02-14T02:50:19.454Z,101243.00
2019-02-14T02:52:25.170Z,101250.00
2019-02-14T02:54:29.993Z,101245.00
2019-02-14T02:56:35.353Z,101250.00
2019-02-14T02:58:40.891Z,101236.00
2019-02-14T03:00:47.685Z,101247.00
2019-02-14T03:02:55.555Z,101242.00
2019-02-14T03:05:00.760Z,101253.00
2019-02-14T03:07:06.269Z,101250.00
2019-02-14T03:09:11.291Z,101245.00
2019-02-14T03:11:16.441Z,101252.00
2019-02-14T03:13:21.571Z,101257.00
2019-02-14T03:15:27.142Z,101249.00
2019-02-14T03:17:32.301Z,101251.00
2019-02-14T03:19:37.854Z,101256.00
2019-02-14T03:21:43.284Z,101259.00
2019-02-14T03:23:48.480Z,101256.00
2019-02-14T03:25:53.927Z,101260.00
2019-02-14T03:27:59.451Z,101254.00
2019-02-14T03:30:05.661Z,101250.00
2019-02-14T03:32:10.918Z,101250.00
2019-02-14T03:34:16.374Z,101258.00
2019-02-14T03:36:21.471Z,101260.00
2019-02-14T03:38:26.739Z,101254.00
2019-02-14T03:40:31.649Z,101254.00
2019-02-14T03:42:36.743Z,101257.00
2019-02-14T03:44:41.846Z,101262.00
2019-02-14T03:46:49.452Z,101259.00
2019-02-14T03:48:56.176Z,101262.00
2019-02-14T03:51:01.233Z,101265.00
2019-02-14T03:53:07.784Z,101274.00
2019-02-14T03:55:12.945Z,101276.00
2019-02-14T03:57:17.891Z,101261.00
2019-02-14T03:59:23.438Z,101265.00
2019-02-14T04:01:28.531Z,101275.00
2019-02-14T04:03:33.373Z,101269.00
2019-02-14T04:05:38.788Z,101269.00
2019-02-14T04:07:43.838Z,101283.00
2019-02-14T04:09:49.332Z,101280.00
2019-02-14T04:11:54.269Z,101277.00
2019-02-14T04:13:59.704Z,101269.00
2019-02-14T04:16:04.641Z,101270.00
2019-02-14T04:18:09.560Z,101272.00
2019-02-14T04:22:18.516Z,101281.00
2019-02-14T04:24:23.953Z,101282.00
2019-02-14T04:26:28.891Z,101280.00
2019-02-14T04:28:34.090Z,101281.00
2019-02-14T04:30:39.803Z,101281.00
2019-02-14T04:32:44.889Z,101285.00
2019-02-14T04:34:49.978Z,101278.00
2019-02-14T04:36:55.848Z,101268.00
2019-02-14T04:39:02.171Z,101284.00
2019-02-14T04:41:07.924Z,101285.00
2019-02-14T04:43:12.835Z,101288.00
2019-02-14T04:45:17.826Z,101284.00
2019-02-14T04:47:22.684Z,101291.00
2019-02-14T04:49:27.922Z,101282.00
2019-02-14T04:51:33.089Z,101279.00
2019-02-14T04:53:38.230Z,101289.00
2019-02-14T04:55:43.181Z,101286.00
2019-02-14T04:57:48.344Z,101286.00
2019-02-14T04:59:53.193Z,101287.00
2019-02-14T05:01:58.553Z,101282.00
2019-02-14T05:04:03.381Z,101286.00
2019-02-14T05:06:08.542Z,101288.00
2019-02-14T05:08:13.525Z,101292.00
2019-02-14T05:10:18.870Z,101284.00
2019-02-14T05:12:24.217Z,101279.00
2019-02-14T05:14:29.043Z,101281.00
2019-02-14T05:16:34.133Z,101274.00
2019-02-14T05:18:39.350Z,101269.00
2019-02-14T05:20:45.073Z,101276.00
2019-02-14T05:22:50.304Z,101282.00
2019-02-14T05:24:55.374Z,101286.00
2019-02-14T05:27:00.204Z,101282.00
2019-02-14T05:29:05.549Z,101279.00
2019-02-14T05:31:10.460Z,101287.00
2019-02-14T05:33:15.642Z,101282.00
2019-02-14T05:35:21.097Z,101285.00
2019-02-14T05:37:26.413Z,101271.00
2019-02-14T05:39:32.238Z,101272.00
2019-02-14T05:41:37.947Z,101294.00
2019-02-14T05:43:43.153Z,101283.00
2019-02-14T05:45:48.086Z,101294.00
2019-02-14T05:47:53.173Z,101294.00
2019-02-14T05:49:58.413Z,101290.00
2019-02-14T05:52:03.289Z,101294.00
2019-02-14T05:54:08.375Z,101300.00
2019-02-14T05:56:13.470Z,101299.00
2019-02-14T05:58:18.707Z,101309.00
2019-02-14T06:00:23.882Z,101299.00
2019-02-14T06:02:29.262Z,101306.00
2019-02-14T06:04:34.234Z,101305.00
2019-02-14T06:06:39.427Z,101306.00
2019-02-14T06:08:44.881Z,101322.00
2019-02-14T06:10:50.032Z,101321.00
2019-02-14T06:12:55.315Z,101333.00
2019-02-14T06:15:00.293Z,101337.00
2019-02-14T06:17:05.901Z,101329.00
2019-02-14T06:19:11.049Z,101328.00
2019-02-14T06:21:16.214Z,101332.00
2019-02-14T06:23:21.458Z,101335.00
2019-02-14T06:25:26.927Z,101336.00
2019-02-14T06:27:32.050Z,101337.00
2019-02-14T06:29:37.232Z,101339.00
2019-02-14T06:31:42.911Z,101344.00
2019-02-14T06:33:48.680Z,101346.00
2019-02-14T06:35:53.917Z,101343.00
2019-02-14T06:38:00.141Z,101342.00
2019-02-14T06:40:06.192Z,101349.00
2019-02-14T06:42:11.435Z,101347.00
2019-02-14T06:44:16.310Z,101338.00
2019-02-14T06:46:21.930Z,101356.00
2019-02-14T06:48:27.397Z,101341.00
2019-02-14T06:50:34.729Z,101350.00
2019-02-14T06:52:40.430Z,101347.00
2019-02-14T06:54:45.825Z,101357.00
2019-02-14T06:56:50.954Z,101350.00
2019-02-14T06:58:56.153Z,101359.00
2019-02-14T07:01:01.296Z,101349.00
2019-02-14T07:03:06.162Z,101363.00
2019-02-14T07:05:11.260Z,101368.00
2019-02-14T07:07:18.656Z,101366.00
2019-02-14T07:09:23.211Z,101380.00
2019-02-14T07:11:28.137Z,101373.00
2019-02-14T07:13:33.001Z,101382.00
2019-02-14T07:15:38.377Z,101378.00
2019-02-14T07:17:43.640Z,101372.00
2019-02-14T07:19:49.095Z,101374.00
2019-02-14T07:21:54.272Z,101377.00
2019-02-14T07:23:59.640Z,101372.00
2019-02-14T07:26:04.757Z,101378.00
2019-02-14T07:28:09.600Z,101384.00
2019-02-14T07:30:17.499Z,101383.00
2019-02-14T07:32:22.651Z,101383.00
2019-02-14T07:34:27.817Z,101382.00
2019-02-14T07:36:33.593Z,101376.00
2019-02-14T07:38:39.059Z,101389.00
2019-02-14T07:40:44.316Z,101384.00
2019-02-14T07:42:50.067Z,101383.00
2019-02-14T07:44:55.666Z,101383.00
2019-02-14T07:47:01.122Z,101387.00
2019-02-14T07:49:06.086Z,101393.00
2019-02-14T07:51:11.212Z,101389.00
2019-02-14T07:53:16.488Z,101380.00
2019-02-14T07:55:21.816Z,101385.00
2019-02-14T07:57:26.694Z,101392.00
2019-02-14T07:59:32.059Z,101402.00
2019-02-14T08:01:37.582Z,101399.00
2019-02-14T08:03:42.838Z,101396.00
2019-02-14T08:05:47.934Z,101389.00
2019-02-14T08:07:52.859Z,101385.00
2019-02-14T08:09:57.996Z,101389.00
2019-02-14T08:12:02.909Z,101398.00
2019-02-14T08:14:07.915Z,101396.00
2019-02-14T08:16:13.095Z,101390.00
2019-02-14T08:18:17.991Z,101380.00
2019-02-14T08:20:22.903Z,101381.00
2019-02-14T08:22:28.935Z,101381.00
2019-02-14T08:24:34.224Z,101377.00
2019-02-14T08:26:39.427Z,101380.00
2019-02-14T08:28:44.868Z,101382.00
2019-02-14T08:30:50.552Z,101378.00
2019-02-14T08:32:55.407Z,101383.00
2019-02-14T08:35:00.854Z,101380.00
2019-02-14T08:37:06.010Z,101382.00
2019-02-14T08:39:11.235Z,101375.00
2019-02-14T08:41:16.715Z,101385.00
2019-02-14T08:43:22.489Z,101375.00
2019-02-14T08:45:27.783Z,101370.00
2019-02-14T08:47:33.466Z,101371.00
2019-02-14T08:49:38.397Z,101374.00
2019-02-14T08:51:43.270Z,101375.00
2019-02-14T08:53:48.757Z,101371.00
2019-02-14T08:55:53.934Z,101373.00
2019-02-14T08:57:59.377Z,101386.00
2019-02-14T09:00:05.453Z,101374.00
2019-02-14T09:02:10.701Z,101377.00
2019-02-14T09:04:16.169Z,101369.00
2019-02-14T09:06:21.399Z,101358.00
2019-02-14T09:08:26.876Z,101363.00
2019-02-14T09:10:31.744Z,101361.00
2019-02-14T09:12:36.916Z,101319.00
2019-02-14T09:14:41.772Z,101367.00
2019-02-14T09:16:47.001Z,101358.00
2019-02-14T09:18:52.130Z,101359.00
2019-02-14T09:20:57.542Z,101350.00
2019-02-14T09:23:02.394Z,101341.00
2019-02-14T09:25:07.656Z,101343.00
2019-02-14T09:27:12.884Z,101343.00
2019-02-14T09:29:18.296Z,101339.00
2019-02-14T09:31:23.766Z,101343.00
2019-02-14T09:33:29.235Z,101337.00
2019-02-14T09:35:34.381Z,101355.00
2019-02-14T09:37:39.936Z,101348.00
2019-02-14T09:39:45.202Z,101352.00
2019-02-14T09:41:50.657Z,101360.00
2019-02-14T09:43:56.310Z,101366.00
2019-02-14T09:46:01.485Z,101357.00
2019-02-14T09:48:07.011Z,101358.00
2019-02-14T09:50:13.138Z,101347.00
2019-02-14T09:52:18.016Z,101346.00
2019-02-14T09:54:23.446Z,101347.00
2019-02-14T09:56:28.273Z,101347.00
2019-02-14T09:58:33.646Z,101346.00
2019-02-14T10:00:39.081Z,101334.00
2019-02-14T10:02:44.074Z,101338.00
2019-02-14T10:04:50.048Z,101339.00
2019-02-14T10:06:54.858Z,101340.00
2019-02-14T10:09:00.751Z,101336.00
2019-02-14T10:11:06.066Z,101334.00
2019-02-14T10:13:11.269Z,101337.00
2019-02-14T10:15:16.398Z,101330.00
2019-02-14T10:17:22.455Z,101339.00
2019-02-14T10:19:28.754Z,101336.00
2019-02-14T10:21:34.399Z,101340.00
2019-02-14T10:23:39.576Z,101336.00
2019-02-14T10:25:44.739Z,101336.00
2019-02-14T10:27:50.309Z,101333.00
2019-02-14T10:29:55.233Z,101329.00
2019-02-14T10:32:00.699Z,101325.00
2019-02-14T10:34:05.635Z,101322.00
2019-02-14T10:36:10.500Z,101322.00
2019-02-14T10:38:22.053Z,101323.00
2019-02-14T10:40:22.328Z,101320.00
2019-02-14T10:42:27.472Z,101325.00
2019-02-14T10:44:32.332Z,101314.00
2019-02-14T10:46:37.178Z,101305.00
2019-02-14T10:48:42.634Z,101309.00
2019-02-14T10:50:47.491Z,101299.00
2019-02-14T10:52:52.890Z,101298.00
2019-02-14T10:54:57.708Z,101303.00
2019-02-14T10:57:03.246Z,101304.00
2019-02-14T10:59:08.934Z,101304.00
2019-02-14T11:01:14.566Z,101297.00
2019-02-14T11:03:19.821Z,101286.00
2019-02-14T11:05:24.732Z,101288.00
2019-02-14T11:07:29.958Z,101290.00
2019-02-14T11:09:35.186Z,101291.00
2019-02-14T11:11:40.637Z,101299.00
2019-02-14T11:13:45.870Z,101296.00
2019-02-14T11:15:50.810Z,101290.00
2019-02-14T11:17:56.641Z,101293.00
2019-02-14T11:20:01.607Z,101297.00
2019-02-14T11:22:07.030Z,101281.00
2019-02-14T11:24:12.491Z,101287.00
2019-02-14T11:26:17.980Z,101280.00
2019-02-14T11:28:22.837Z,101284.00
2019-02-14T11:30:28.258Z,101294.00
2019-02-14T11:32:33.445Z,101286.00
2019-02-14T11:34:39.025Z,101292.00
2019-02-14T11:36:44.147Z,101288.00
2019-02-14T11:38:49.389Z,101292.00
2019-02-14T11:40:54.352Z,101289.00
2019-02-14T11:43:00.025Z,101282.00
2019-02-14T11:45:06.169Z,101286.00
2019-02-14T11:47:11.041Z,101288.00
2019-02-14T11:49:15.972Z,101290.00
2019-02-14T11:51:21.123Z,101281.00
2019-02-14T11:53:26.512Z,101285.00
2019-02-14T11:55:32.153Z,101284.00
2019-02-14T11:57:37.801Z,101282.00
2019-02-14T11:59:43.327Z,101276.00
2019-02-14T12:01:55.126Z,101279.00
2019-02-14T12:03:55.720Z,101278.00
2019-02-14T12:06:01.179Z,101267.00
2019-02-14T12:08:06.762Z,101274.00
2019-02-14T12:10:13.834Z,101264.00
2019-02-14T12:12:20.744Z,101253.00
2019-02-14T12:14:25.997Z,101261.00
2019-02-14T12:16:31.354Z,101258.00
2019-02-14T12:18:36.284Z,101260.00
2019-02-14T12:20:41.445Z,101253.00
2019-02-14T12:22:47.392Z,101261.00
2019-02-14T12:24:52.384Z,101253.00
2019-02-14T12:26:57.913Z,101257.00
2019-02-14T12:29:02.827Z,101250.00
2019-02-14T12:31:08.073Z,101252.00
2019-02-14T12:33:13.568Z,101250.00
2019-02-14T12:35:18.681Z,101250.00
2019-02-14T12:37:23.832Z,101247.00
2019-02-14T12:39:28.779Z,101243.00
2019-02-14T12:41:34.323Z,101247.00
2019-02-14T12:43:39.597Z,101245.00
2019-02-14T12:45:44.720Z,101247.00
2019-02-14T12:47:49.646Z,101239.00
2019-02-14T12:49:55.363Z,101234.00
2019-02-14T12:52:00.217Z,101233.00
2019-02-14T12:54:05.137Z,101224.00
2019-02-14T12:56:10.240Z,101234.00
2019-02-14T12:58:15.811Z,101225.00
2019-02-14T13:00:21.847Z,101229.00
2019-02-14T13:02:26.707Z,101218.00
2019-02-14T13:04:32.539Z,101230.00
2019-02-14T13:06:37.699Z,101224.00
2019-02-14T13:08:43.162Z,101229.00
2019-02-14T13:10:48.318Z,101224.00
2019-02-14T13:12:53.775Z,101217.00
2019-02-14T13:14:58.740Z,101222.00
2019-02-14T13:17:04.318Z,101219.00
2019-02-14T13:19:09.850Z,101221.00
2019-02-14T13:21:15.207Z,101212.00
2019-02-14T13:23:20.077Z,101218.00
2019-02-14T13:25:25.408Z,101218.00
2019-02-14T13:27:30.754Z,101210.00
2019-02-14T13:29:36.064Z,101196.00
2019-02-14T13:31:41.383Z,101213.00
2019-02-14T13:33:46.645Z,101211.00
2019-02-14T13:35:51.925Z,101215.00
2019-02-14T13:37:57.095Z,101215.00
2019-02-14T13:40:02.329Z,101215.00
2019-02-14T13:42:07.731Z,101220.00
2019-02-14T13:44:12.569Z,101207.00
2019-02-14T13:46:17.912Z,101222.00
2019-02-14T13:48:23.489Z,101213.00
2019-02-14T13:50:28.398Z,101213.00
2019-02-14T13:52:33.268Z,101224.00
2019-02-14T13:54:38.786Z,101206.00
2019-02-14T13:56:43.952Z,101222.00
2019-02-14T13:58:49.298Z,101204.00
2019-02-14T14:00:55.615Z,101218.00
2019-02-14T14:03:00.445Z,101209.00
2019-02-14T14:05:06.339Z,101218.00
2019-02-14T14:07:11.440Z,101215.00
2019-02-14T14:09:16.271Z,101204.00
2019-02-14T14:11:21.406Z,101212.00
2019-02-14T14:13:26.272Z,101206.00
2019-02-14T14:15:31.752Z,101213.00
2019-02-14T14:17:37.052Z,101207.00
2019-02-14T14:19:42.577Z,101196.00
2019-02-14T14:21:47.525Z,101199.00
2019-02-14T14:23:52.771Z,101196.00
2019-02-14T14:25:57.949Z,101201.00
2019-02-14T14:28:04.208Z,101200.00
2019-02-14T14:30:10.148Z,101193.00
2019-02-14T14:32:15.068Z,101195.00
2019-02-14T14:34:20.489Z,101198.00
2019-02-14T14:36:25.526Z,101202.00
2019-02-14T14:38:30.678Z,101191.00
2019-02-14T14:40:36.276Z,101193.00
2019-02-14T14:43:00.858Z,101199.00
2019-02-14T14:45:08.446Z,101191.00
2019-02-14T14:47:19.223Z,101189.00
2019-02-14T14:49:24.814Z,101198.00
2019-02-14T14:51:29.674Z,101193.00
2019-02-14T14:53:34.815Z,101194.00
2019-02-14T14:55:39.949Z,101196.00
2019-02-14T14:57:45.116Z,101202.00
2019-02-14T14:59:50.578Z,101202.00
2019-02-14T15:01:55.433Z,101205.00
2019-02-14T15:04:00.300Z,101193.00
2019-02-14T15:06:05.157Z,101186.00
2019-02-14T15:08:10.359Z,101184.00
2019-02-14T15:10:15.882Z,101184.00
2019-02-14T15:12:21.392Z,101182.00
2019-02-14T15:14:26.740Z,101180.00
2019-02-14T15:16:31.910Z,101177.00
2019-02-14T15:18:37.468Z,101185.00
2019-02-14T15:20:43.529Z,101182.00
2019-02-14T15:22:48.370Z,101188.00
2019-02-14T15:24:54.096Z,101192.00
2019-02-14T15:26:59.305Z,101186.00
2019-02-14T15:29:04.953Z,101184.00
2019-02-14T15:31:10.730Z,101176.00
2019-02-14T15:33:15.674Z,101174.00
2019-02-14T15:35:20.853Z,101173.00
2019-02-14T15:37:26.128Z,101168.00
2019-02-14T15:39:31.354Z,101173.00
2019-02-14T15:41:36.257Z,101173.00
2019-02-14T15:43:41.259Z,101178.00
2019-02-14T15:45:46.799Z,101180.00
2019-02-14T15:47:52.242Z,101169.00
2019-02-14T15:49:57.094Z,101177.00
2019-02-14T15:52:03.844Z,101170.00
2019-02-14T15:54:10.014Z,101169.00
2019-02-14T15:56:15.670Z,101173.00
2019-02-14T15:58:20.824Z,101187.00
2019-02-14T16:00:25.666Z,101180.00
2019-02-14T16:02:33.048Z,101181.00
2019-02-14T16:04:37.579Z,101178.00
2019-02-14T16:06:43.600Z,101178.00
2019-02-14T16:08:48.963Z,101183.00
2019-02-14T16:10:55.898Z,101195.00
2019-02-14T16:13:00.879Z,101196.00
2019-02-14T16:15:09.010Z,101189.00
2019-02-14T16:17:13.806Z,101192.00
2019-02-14T16:19:18.690Z,101191.00
2019-02-14T16:21:23.734Z,101178.00
2019-02-14T16:23:53.134Z,101178.00
2019-02-14T16:25:58.817Z,101181.00
2019-02-14T16:28:04.474Z,101187.00
2019-02-14T16:30:10.610Z,101188.00
2019-02-14T16:32:15.520Z,101190.00
2019-02-14T16:34:21.083Z,101191.00
2019-02-14T16:36:26.404Z,101186.00
2019-02-14T16:38:32.981Z,101179.00
2019-02-14T16:40:38.878Z,101191.00
2019-02-14T16:42:44.629Z,101190.00
2019-02-14T16:44:49.541Z,101195.00
2019-02-14T16:46:54.594Z,101197.00
2019-02-14T16:48:59.855Z,101186.00
2019-02-14T16:51:05.660Z,101201.00
2019-02-14T16:53:11.208Z,101191.00
2019-02-14T16:55:16.367Z,101201.00
2019-02-14T16:57:21.627Z,101189.00
2019-02-14T16:59:26.807Z,101203.00
2019-02-14T17:01:31.973Z,101195.00
2019-02-14T17:03:37.811Z,101191.00
2019-02-14T17:05:42.831Z,101197.00
2019-02-14T17:07:48.364Z,101187.00
2019-02-14T17:09:53.883Z,101197.00
2019-02-14T17:11:59.346Z,101198.00
2019-02-14T17:14:04.840Z,101195.00
2019-02-14T17:16:10.225Z,101205.00
2019-02-14T17:18:15.840Z,101211.00
2019-02-14T17:20:21.073Z,101203.00
2019-02-14T17:22:26.031Z,101213.00
2019-02-14T17:24:31.184Z,101217.00
2019-02-14T17:26:36.158Z,101214.00
2019-02-14T17:28:41.311Z,101211.00
2019-02-14T17:30:46.901Z,101220.00
2019-02-14T17:32:51.808Z,101221.00
2019-02-14T17:34:57.734Z,101221.00
2019-02-14T17:37:02.645Z,101216.00
2019-02-14T17:39:07.770Z,101214.00
2019-02-14T17:41:13.058Z,101217.00
2019-02-14T17:43:18.062Z,101221.00
2019-02-14T17:45:24.116Z,101222.00
2019-02-14T17:47:29.722Z,101219.00
2019-02-14T17:49:35.024Z,101234.00
2019-02-14T17:51:39.938Z,101229.00
2019-02-14T17:53:45.207Z,101217.00
2019-02-14T17:55:50.539Z,101223.00
2019-02-14T17:57:56.003Z,101221.00
2019-02-14T18:00:01.557Z,101226.00
2019-02-14T18:02:06.804Z,101231.00
2019-02-14T18:04:11.984Z,101222.00
2019-02-14T18:06:16.932Z,101223.00
2019-02-14T18:08:22.066Z,101216.00
2019-02-14T18:10:27.549Z,101221.00
2019-02-14T18:12:32.887Z,101226.00
2019-02-14T18:14:38.255Z,101230.00
2019-02-14T18:16:43.904Z,101224.00
2019-02-14T18:18:49.237Z,101226.00
2019-02-14T18:20:54.439Z,101215.00
2019-02-14T18:22:59.354Z,101217.00
2019-02-14T18:25:05.672Z,101219.00
2019-02-14T18:27:11.027Z,101227.00
2019-02-14T18:29:15.889Z,101221.00
2019-02-14T18:31:20.816Z,101231.00
2019-02-14T18:33:26.166Z,101237.00
2019-02-14T18:35:31.315Z,101242.00
2019-02-14T18:37:36.760Z,101242.00
2019-02-14T18:39:41.913Z,101224.00
2019-02-14T18:41:47.492Z,101240.00
2019-02-14T18:43:52.360Z,101237.00
2019-02-14T18:45:57.729Z,101238.00
2019-02-14T18:48:03.061Z,101232.00
2019-02-14T18:50:09.073Z,101231.00
2019-02-14T18:52:13.942Z,101231.00
2019-02-14T18:54:18.959Z,101227.00
2019-02-14T18:56:23.874Z,101229.00
2019-02-14T18:58:29.070Z,101228.00
2019-02-14T19:00:34.018Z,101232.00
2019-02-14T19:02:39.419Z,101221.00
2019-02-14T19:04:45.802Z,101225.00
2019-02-14T19:06:51.463Z,101227.00
2019-02-14T19:08:56.732Z,101229.00
2019-02-14T19:11:01.796Z,101224.00
2019-02-14T19:13:06.888Z,101223.00
2019-02-14T19:15:12.438Z,101218.00
2019-02-14T19:17:17.372Z,101217.00
2019-02-14T19:19:22.531Z,101210.00
2019-02-14T19:21:27.972Z,101222.00
2019-02-14T19:23:33.530Z,101222.00
2019-02-14T19:25:38.705Z,101229.00
2019-02-14T19:27:44.101Z,101212.00
2019-02-14T19:29:49.289Z,101223.00
2019-02-14T19:31:54.191Z,101223.00
2019-02-14T19:33:59.180Z,101220.00
2019-02-14T19:36:04.439Z,101212.00
2019-02-14T19:38:09.787Z,101203.00
2019-02-14T19:40:14.780Z,101203.00
2019-02-14T19:42:20.133Z,101198.00
2019-02-14T19:44:25.436Z,101196.00
2019-02-14T19:46:30.930Z,101198.00
2019-02-14T19:48:36.405Z,101200.00
2019-02-14T19:50:41.700Z,101206.00
2019-02-14T19:52:46.888Z,101194.00
2019-02-14T19:54:52.581Z,101194.00
2019-02-14T19:56:57.546Z,101192.00
2019-02-14T19:59:02.469Z,101187.00
2019-02-14T20:01:08.023Z,101190.00
2019-02-14T20:03:13.222Z,101193.00
2019-02-14T20:05:18.546Z,101186.00
2019-02-14T20:07:23.696Z,101184.00
2019-02-14T20:09:28.658Z,101171.00
2019-02-14T20:11:36.747Z,101178.00
2019-02-14T20:13:49.157Z,101178.00
2019-02-14T20:15:47.712Z,101194.00
2019-02-14T20:17:53.019Z,101194.00
2019-02-14T20:19:58.339Z,101188.00
2019-02-14T20:22:04.050Z,101188.00
2019-02-14T20:24:09.214Z,101185.00
2019-02-14T20:26:14.674Z,101182.00
2019-02-14T20:28:19.620Z,101185.00
2019-02-14T20:30:24.783Z,101180.00
2019-02-14T20:32:29.655Z,101185.00
2019-02-14T20:34:34.538Z,101190.00
2019-02-14T20:36:39.568Z,101196.00
2019-02-14T20:38:44.483Z,101191.00
2019-02-14T20:40:49.771Z,101200.00
2019-02-14T20:42:55.463Z,101198.00
2019-02-14T20:45:00.647Z,101197.00
2019-02-14T20:47:05.636Z,101200.00
2019-02-14T20:49:10.857Z,101192.00
2019-02-14T20:51:15.859Z,101188.00
2019-02-14T20:53:21.053Z,101193.00
2019-02-14T20:55:26.026Z,101178.00
2019-02-14T20:57:31.259Z,101193.00
2019-02-14T20:59:37.045Z,101187.00
2019-02-14T21:01:42.102Z,101179.00
2019-02-14T21:03:47.356Z,101186.00
2019-02-14T21:05:52.729Z,101182.00
2019-02-14T21:07:58.047Z,101184.00
2019-02-14T21:10:03.173Z,101187.00
2019-02-14T21:12:08.645Z,101185.00
2019-02-14T21:14:13.796Z,101188.00
2019-02-14T21:16:18.634Z,101189.00
2019-02-14T21:18:24.121Z,101193.00
2019-02-14T21:20:29.173Z,101193.00
2019-02-14T21:22:34.342Z,101181.00
2019-02-14T21:24:39.230Z,101192.00
2019-02-14T21:26:44.249Z,101173.00
2019-02-14T21:28:49.132Z,101187.00
2019-02-14T21:30:54.029Z,101184.00
2019-02-14T21:32:59.362Z,101181.00
2019-02-14T21:35:04.378Z,101178.00
2019-02-14T21:37:09.258Z,101176.00
2019-02-14T21:39:14.225Z,101182.00
2019-02-14T21:41:19.236Z,101187.00
2019-02-14T21:43:24.158Z,101182.00
2019-02-14T21:45:29.959Z,101175.00
2019-02-14T21:47:34.875Z,101179.00
2019-02-14T21:49:39.821Z,101181.00
2019-02-14T21:51:45.150Z,101183.00
2019-02-14T21:53:50.196Z,101187.00
2019-02-14T21:55:55.396Z,101188.00
2019-02-14T21:58:04.087Z,101188.00
2019-02-14T22:00:11.325Z,101185.00
2019-02-14T22:02:16.675Z,101187.00
2019-02-14T22:04:22.128Z,101186.00
2019-02-14T22:06:27.038Z,101192.00
2019-02-14T22:08:32.004Z,101191.00
2019-02-14T22:10:37.804Z,101185.00
2019-02-14T22:12:44.088Z,101183.00
2019-02-14T22:14:49.689Z,101180.00
2019-02-14T22:16:54.550Z,101180.00
2019-02-14T22:19:00.492Z,101185.00
2019-02-14T22:21:06.192Z,101188.00
2019-02-14T22:23:11.585Z,101183.00
2019-02-14T22:25:16.520Z,101186.00
2019-02-14T22:27:21.743Z,101185.00
2019-02-14T22:29:26.921Z,101184.00
2019-02-14T22:31:32.291Z,101188.00
2019-02-14T22:33:38.097Z,101178.00
2019-02-14T22:35:44.129Z,101177.00
2019-02-14T22:37:49.133Z,101177.00
2019-02-14T22:39:54.420Z,101185.00
2019-02-14T22:42:00.119Z,101184.00
2019-02-14T22:44:05.460Z,101185.00
2019-02-14T22:46:10.804Z,101194.00
2019-02-14T22:48:16.270Z,101177.00
2019-02-14T22:50:21.214Z,101185.00
2019-02-14T22:52:26.492Z,101175.00
2019-02-14T22:54:31.749Z,101182.00
2019-02-14T22:56:37.183Z,101176.00
2019-02-14T22:58:42.340Z,101183.00
2019-02-14T23:00:57.317Z,101186.00
2019-02-14T23:03:02.727Z,101185.00
2019-02-14T23:05:08.582Z,101176.00
2019-02-14T23:07:14.211Z,101188.00
2019-02-14T23:09:19.860Z,101186.00
2019-02-14T23:11:25.152Z,101183.00
2019-02-14T23:13:30.101Z,101193.00
2019-02-14T23:15:35.220Z,101186.00
2019-02-14T23:17:40.910Z,101192.00
2019-02-14T23:19:46.119Z,101188.00
2019-02-14T23:21:51.336Z,101185.00
2019-02-14T23:23:56.568Z,101194.00
2019-02-14T23:26:01.414Z,101182.00
2019-02-14T23:28:06.408Z,101193.00
2019-02-14T23:30:11.988Z,101185.00
2019-02-14T23:32:17.167Z,101190.00
2019-02-14T23:34:22.412Z,101195.00
2019-02-14T23:36:27.925Z,101183.00
2019-02-14T23:38:33.034Z,101196.00
2019-02-14T23:40:38.601Z,101192.00
2019-02-14T23:42:43.801Z,101192.00
2019-02-14T23:44:48.732Z,101189.00
2019-02-14T23:46:53.994Z,101192.00
2019-02-14T23:48:59.684Z,101199.00
2019-02-14T23:51:04.724Z,101183.00
2019-02-14T23:53:09.651Z,101199.00